Time;durP1;ratioP1;P1;durP2;ratioP2;P2;SDS_P1;SDS_P2;PMS_P1;PMS_P2;Temp;Humidity;BMP_temperature;BMP_pressure;BME280_temperature;BME280_humidity;BME280_pressure;Samples;Min_cycle;Max_cycle;Signal;HPM_P1;HPM_P2
2022/06/18 00:01:34;;;;;;;3.70;2.80;;;24.20;68.00;;;;;;5022315;28;20077;-20
2022/06/18 00:04:09;;;;;;;4.53;2.38;;;24.20;68.10;;;;;;5021990;28;20046;-20
2022/06/18 00:06:42;;;;;;;3.97;2.80;;;24.20;67.80;;;;;;5023149;28;20059;-20
2022/06/18 00:09:09;;;;;;;2.60;2.33;;;24.20;67.70;;;;;;5019650;28;20052;-20
2022/06/18 00:14:19;;;;;;;;;;;24.10;67.70;;;;;;5027560;28;20168;-20
2022/06/18 00:16:45;;;;;;;3.83;2.75;;;24.10;67.70;;;;;;5028956;28;19961;-20
2022/06/18 00:19:10;;;;;;;2.95;2.67;;;24.00;67.80;;;;;;5026523;28;20062;-22
2022/06/18 00:21:36;;;;;;;3.97;2.42;;;24.00;68.10;;;;;;5013171;28;20073;-20
2022/06/18 00:24:01;;;;;;;5.20;2.72;;;24.00;68.00;;;;;;5025183;28;20129;-20
2022/06/18 00:26:27;;;;;;;3.08;2.78;;;24.00;68.20;;;;;;5010760;28;20107;-20
2022/06/18 00:28:53;;;;;;;3.05;2.55;;;23.90;68.30;;;;;;5027529;28;20046;-20
2022/06/18 00:31:19;;;;;;;3.20;2.53;;;24.00;68.00;;;;;;5009370;28;20049;-20
2022/06/18 00:33:44;;;;;;;4.28;2.50;;;23.90;68.00;;;;;;5023650;28;20133;-20
2022/06/18 00:36:14;;;;;;;2.38;2.15;;;23.90;68.00;;;;;;5009338;28;20105;-20
2022/06/18 00:38:41;;;;;;;2.65;2.45;;;24.00;67.90;;;;;;5024878;28;20038;-21
2022/06/18 00:41:07;;;;;;;5.88;3.08;;;24.00;67.90;;;;;;5024046;28;20073;-20
2022/06/18 00:43:40;;;;;;;3.08;2.50;;;23.90;67.90;;;;;;5007689;28;20056;-21
2022/06/18 00:46:15;;;;;;;2.90;2.40;;;23.90;68.00;;;;;;5030745;28;20155;-23
2022/06/18 00:49:11;;;;;;;2.92;2.50;;;23.90;67.90;;;;;;5026188;28;20065;-22
2022/06/18 00:51:49;;;;;;;2.75;2.55;;;23.90;67.90;;;;;;5025067;28;20045;-20
2022/06/18 00:54:21;;;;;;;3.90;2.70;;;23.80;68.00;;;;;;5026291;28;20557;-20
2022/06/18 00:57:14;;;;;;;3.38;2.22;;;23.90;68.00;;;;;;5012010;28;20453;-19
2022/06/18 00:59:41;;;;;;;4.43;2.97;;;23.90;68.20;;;;;;5028811;28;20541;-21
2022/06/18 01:02:11;;;;;;;2.92;2.65;;;23.80;68.00;;;;;;5024416;28;20052;-20
2022/06/18 01:04:36;;;;;;;3.30;2.55;;;23.80;68.20;;;;;;5004790;28;20049;-20
2022/06/18 01:07:31;;;;;;;3.33;2.85;;;23.80;68.20;;;;;;5024201;28;20095;-20
2022/06/18 01:09:56;;;;;;;3.13;2.85;;;23.70;68.30;;;;;;5021997;28;20041;-22
2022/06/18 01:12:22;;;;;;;3.60;2.60;;;23.70;68.50;;;;;;5028847;28;20060;-20
2022/06/18 01:14:56;;;;;;;2.70;2.50;;;23.70;68.70;;;;;;5029456;28;20041;-21
2022/06/18 01:17:22;;;;;;;3.03;2.83;;;23.60;68.80;;;;;;5023036;28;20041;-20
2022/06/18 01:19:49;;;;;;;2.67;2.47;;;23.60;68.90;;;;;;5004697;28;20513;-20
2022/06/18 01:22:37;;;;;;;2.90;2.65;;;23.60;69.20;;;;;;5024729;28;20558;-22
2022/06/18 01:25:06;;;;;;;2.80;2.60;;;23.50;69.20;;;;;;5008589;28;20065;-20
2022/06/18 01:27:35;;;;;;;2.78;2.40;;;23.60;69.20;;;;;;5029417;28;20046;-20
2022/06/18 01:30:08;;;;;;;2.72;2.58;;;23.60;69.10;;;;;;5004287;28;20048;-20
2022/06/18 01:32:34;;;;;;;3.90;2.83;;;23.50;69.10;;;;;;5021520;28;20050;-21
2022/06/18 01:35:00;;;;;;;3.90;3.03;;;23.50;69.30;;;;;;5009267;28;20287;-20
2022/06/18 01:37:26;;;;;;;2.70;2.50;;;23.60;69.20;;;;;;5027788;28;20456;-20
2022/06/18 01:39:52;;;;;;;3.25;2.90;;;23.50;69.50;;;;;;5023295;28;20049;-20
2022/06/18 01:42:27;;;;;;;3.40;2.83;;;23.50;69.70;;;;;;5024879;28;20044;-20
2022/06/18 01:45:19;;;;;;;3.67;2.63;;;23.50;69.50;;;;;;5013437;28;20337;-20
2022/06/18 01:47:50;;;;;;;5.45;2.70;;;23.50;69.80;;;;;;5028693;28;20100;-22
2022/06/18 01:50:32;;;;;;;2.90;2.67;;;23.50;69.50;;;;;;5023545;28;20049;-20
2022/06/18 01:53:19;;;;;;;2.80;2.60;;;23.50;69.60;;;;;;5027759;28;20409;-20
2022/06/18 01:56:07;;;;;;;3.97;2.72;;;23.40;69.80;;;;;;5025073;28;20053;-20
2022/06/18 01:58:49;;;;;;;3.17;2.53;;;23.40;69.90;;;;;;5028644;28;20510;-20
2022/06/18 02:01:24;;;;;;;5.20;2.92;;;23.40;69.90;;;;;;5008009;28;20487;-20
2022/06/18 02:03:50;;;;;;;3.22;2.13;;;23.30;70.40;;;;;;5019405;28;20049;-21
2022/06/18 02:06:16;;;;;;;3.80;2.30;;;23.30;70.40;;;;;;5012905;28;20069;-23
2022/06/18 02:08:42;;;;;;;2.67;2.47;;;23.30;70.50;;;;;;5008419;28;20053;-20
2022/06/18 02:11:07;;;;;;;5.85;2.72;;;23.20;70.40;;;;;;5005376;28;21564;-20
2022/06/18 02:13:35;;;;;;;2.83;2.63;;;23.20;70.40;;;;;;5013266;28;20041;-20
2022/06/18 02:16:02;;;;;;;3.67;2.75;;;23.20;70.50;;;;;;4979349;28;20057;-23
2022/06/18 02:18:28;;;;;;;3.85;2.38;;;23.20;70.40;;;;;;4997704;28;20068;-23
2022/06/18 02:20:54;;;;;;;2.67;2.47;;;23.20;70.50;;;;;;5012409;28;20556;-22
2022/06/18 02:23:21;;;;;;;3.08;2.88;;;23.10;70.70;;;;;;5013346;28;20559;-22
2022/06/18 02:25:46;;;;;;;4.18;2.70;;;23.20;70.70;;;;;;4994822;28;20187;-20
2022/06/18 02:28:14;;;;;;;3.53;2.70;;;23.10;70.90;;;;;;5013863;28;20061;-22
2022/06/18 02:30:40;;;;;;;2.92;2.63;;;23.10;70.90;;;;;;5011850;28;20042;-22
2022/06/18 02:33:39;;;;;;;5.00;3.20;;;23.10;70.90;;;;;;4998104;28;20049;-20
2022/06/18 02:36:30;;;;;;;4.13;3.17;;;23.10;71.10;;;;;;5009463;28;20046;-22
2022/06/18 02:39:07;;;;;;;3.15;2.42;;;23.10;71.00;;;;;;5013066;28;20065;-19
2022/06/18 02:41:32;;;;;;;4.10;2.65;;;23.10;71.00;;;;;;5010962;28;20149;-23
2022/06/18 02:43:58;;;;;;;3.65;2.75;;;23.10;71.30;;;;;;4995652;28;20061;-22
2022/06/18 02:46:23;;;;;;;2.80;2.47;;;23.00;71.50;;;;;;4995563;28;20061;-22
2022/06/18 02:48:49;;;;;;;3.20;2.78;;;23.00;71.50;;;;;;4994999;28;20521;-22
2022/06/18 02:51:15;;;;;;;5.80;2.65;;;22.90;71.80;;;;;;4980129;28;20056;-22
2022/06/18 02:53:40;;;;;;;3.03;2.75;;;22.80;71.90;;;;;;5011082;28;20112;-22
2022/06/18 02:56:07;;;;;;;3.10;2.50;;;23.00;71.40;;;;;;4995883;28;20052;-22
2022/06/18 02:58:38;;;;;;;3.25;2.95;;;23.00;71.40;;;;;;5010898;28;20392;-21
2022/06/18 03:01:06;;;;;;;3.30;2.53;;;22.90;71.60;;;;;;5011668;28;20844;-22
2022/06/18 03:03:34;;;;;;;2.80;2.55;;;22.90;71.30;;;;;;5007773;28;20384;-23
2022/06/18 03:06:00;;;;;;;2.60;2.40;;;22.90;71.50;;;;;;5012546;28;20041;-22
2022/06/18 03:08:27;;;;;;;2.80;2.60;;;22.80;71.70;;;;;;4979115;28;20041;-22
2022/06/18 03:13:37;;;;;;;2.72;2.40;;;22.80;71.90;;;;;;5010914;28;20496;-22
2022/06/18 03:16:03;;;;;;;4.47;2.75;;;22.80;71.90;;;;;;4992830;28;20507;-22
2022/06/18 03:18:29;;;;;;;2.45;2.25;;;22.80;72.20;;;;;;5007880;28;20045;-22
2022/06/18 03:20:57;;;;;;;2.50;2.30;;;22.80;72.20;;;;;;5013196;28;20053;-22
2022/06/18 03:23:23;;;;;;;2.72;2.53;;;22.90;72.00;;;;;;5011162;28;20287;-22
2022/06/18 03:25:49;;;;;;;2.90;2.58;;;22.80;72.10;;;;;;5012049;28;20184;-23
2022/06/18 03:28:15;;;;;;;2.97;2.60;;;22.70;72.80;;;;;;5010314;28;20041;-23
2022/06/18 03:30:41;;;;;;;3.15;2.38;;;22.70;72.90;;;;;;4993471;28;20042;-22
2022/06/18 03:33:08;;;;;;;3.20;2.90;;;22.70;72.90;;;;;;5012300;28;20037;-22
2022/06/18 03:35:33;;;;;;;5.97;2.65;;;22.70;72.70;;;;;;5011831;28;20124;-22
2022/06/18 03:37:59;;;;;;;2.97;2.78;;;22.70;72.70;;;;;;4994523;28;20046;-22
2022/06/18 03:40:25;;;;;;;3.88;2.60;;;22.70;73.00;;;;;;4995915;28;20053;-22
2022/06/18 03:42:52;;;;;;;3.88;2.60;;;22.60;72.70;;;;;;4994546;28;20038;-21
2022/06/18 03:45:18;;;;;;;2.78;2.33;;;22.60;72.60;;;;;;5012177;28;20049;-22
2022/06/18 03:47:44;;;;;;;2.50;2.30;;;22.50;73.00;;;;;;4994099;28;20068;-21
2022/06/18 03:50:10;;;;;;;3.40;2.60;;;22.60;73.30;;;;;;4998601;28;20041;-22
2022/06/18 03:52:35;;;;;;;3.25;2.70;;;22.50;73.20;;;;;;4998372;28;20038;-22
2022/06/18 03:55:01;;;;;;;2.63;2.42;;;22.50;73.40;;;;;;4981373;28;20105;-23
2022/06/18 03:57:27;;;;;;;4.47;2.40;;;22.50;74.00;;;;;;5000082;28;20046;-22
2022/06/18 03:59:53;;;;;;;3.50;2.50;;;22.50;73.20;;;;;;5011914;28;20046;-22
2022/06/18 04:02:18;;;;;;;3.40;2.90;;;22.50;73.40;;;;;;5014967;28;20048;-22
2022/06/18 04:04:44;;;;;;;4.32;2.60;;;22.40;73.70;;;;;;4998704;28;20064;-22
2022/06/18 04:07:18;;;;;;;5.55;3.58;;;22.50;73.40;;;;;;4997696;28;20054;-21
2022/06/18 04:09:44;;;;;;;2.63;2.35;;;22.40;73.50;;;;;;4998096;28;20470;-21
2022/06/18 04:12:10;;;;;;;2.80;2.55;;;22.40;73.70;;;;;;5016099;28;20093;-21
2022/06/18 04:14:35;;;;;;;4.20;2.30;;;22.40;73.80;;;;;;4999314;28;20049;-21
2022/06/18 04:17:02;;;;;;;2.63;2.42;;;22.40;73.60;;;;;;4982683;28;20514;-23
2022/06/18 04:19:27;;;;;;;3.47;2.17;;;22.40;73.70;;;;;;4998935;28;20061;-22
2022/06/18 04:21:53;;;;;;;3.38;2.70;;;22.40;73.90;;;;;;4982477;28;20046;-22
2022/06/18 04:24:19;;;;;;;2.35;2.15;;;22.30;74.00;;;;;;5000333;28;20056;-21
2022/06/18 04:26:44;;;;;;;4.15;2.78;;;22.30;74.20;;;;;;4998247;28;20042;-22
2022/06/18 04:29:10;;;;;;;2.70;2.50;;;22.30;74.50;;;;;;4998215;28;20057;-21
2022/06/18 04:31:36;;;;;;;3.35;3.05;;;22.30;74.40;;;;;;5014489;28;20037;-21
2022/06/18 04:34:03;;;;;;;2.40;2.30;;;22.20;74.70;;;;;;4999076;28;20057;-21
2022/06/18 04:36:36;;;;;;;4.55;2.40;;;22.20;74.90;;;;;;5015437;28;20042;-23
2022/06/18 04:39:02;;;;;;;2.88;2.67;;;22.20;74.70;;;;;;4980536;28;20117;-21
2022/06/18 04:41:28;;;;;;;2.28;2.13;;;22.30;74.80;;;;;;4999456;28;20057;-21
2022/06/18 04:43:53;;;;;;;3.38;2.17;;;22.30;75.00;;;;;;4998279;28;20096;-21
2022/06/18 04:46:19;;;;;;;3.05;2.75;;;22.30;74.80;;;;;;4998222;28;20045;-22
2022/06/18 04:48:45;;;;;;;3.13;2.88;;;22.20;75.10;;;;;;4996782;28;20523;-21
2022/06/18 04:51:10;;;;;;;5.15;3.22;;;22.20;75.10;;;;;;4998333;28;20526;-21
2022/06/18 04:53:36;;;;;;;2.40;2.30;;;22.20;75.20;;;;;;4660390;28;9999898;-21
2022/06/18 04:56:01;;;;;;;2.40;2.20;;;22.20;75.40;;;;;;4987949;28;20061;-22
2022/06/18 04:58:27;;;;;;;3.13;2.80;;;22.20;75.30;;;;;;4991329;28;20073;-21
2022/06/18 05:00:53;;;;;;;7.90;3.20;;;22.30;75.20;;;;;;4990648;28;20145;-21
2022/06/18 05:03:20;;;;;;;3.63;2.08;;;22.30;74.90;;;;;;5005255;28;20050;-22
2022/06/18 05:05:46;;;;;;;3.50;2.90;;;22.30;75.10;;;;;;4993769;28;20053;-22
2022/06/18 05:08:12;;;;;;;2.70;2.50;;;22.20;75.40;;;;;;5009406;28;20057;-22
2022/06/18 05:10:38;;;;;;;3.97;2.58;;;22.30;75.00;;;;;;4992879;28;20057;-21
2022/06/18 05:13:05;;;;;;;2.88;2.67;;;22.30;75.10;;;;;;4992306;28;20732;-22
2022/06/18 05:15:31;;;;;;;3.63;2.63;;;22.30;75.10;;;;;;4650316;28;10000762;-21
2022/06/18 05:17:57;;;;;;;6.07;2.80;;;22.20;75.50;;;;;;4980345;28;20057;-22
2022/06/18 05:20:23;;;;;;;4.13;2.80;;;22.20;75.60;;;;;;4978547;28;20038;-21
2022/06/18 05:22:49;;;;;;;4.82;3.05;;;22.20;75.80;;;;;;5012920;28;20057;-21
2022/06/18 05:25:15;;;;;;;3.17;2.88;;;22.30;75.50;;;;;;4993704;28;20531;-21
2022/06/18 05:27:41;;;;;;;2.60;2.40;;;22.20;75.70;;;;;;4975311;28;20072;-22
2022/06/18 05:30:08;;;;;;;3.00;2.80;;;22.20;75.50;;;;;;5027710;28;20103;-21
2022/06/18 05:32:34;;;;;;;3.35;2.85;;;22.30;75.70;;;;;;5018922;28;20760;-22
2022/06/18 05:35:00;;;;;;;3.45;2.63;;;22.20;75.70;;;;;;4653510;28;10000601;-21
2022/06/18 05:37:26;;;;;;;2.75;2.55;;;22.20;75.80;;;;;;5028069;28;20511;-21
2022/06/18 05:39:52;;;;;;;5.57;2.60;;;22.20;75.60;;;;;;5012057;28;20072;-22
2022/06/18 05:42:17;;;;;;;2.58;2.38;;;22.20;75.90;;;;;;5023857;28;20128;-21
2022/06/18 05:44:43;;;;;;;3.10;2.80;;;22.10;76.00;;;;;;5007136;28;20037;-22
2022/06/18 05:47:20;;;;;;;3.65;2.58;;;22.20;75.60;;;;;;5023970;28;20418;-22
2022/06/18 05:49:45;;;;;;;2.60;2.40;;;22.20;75.80;;;;;;5023333;28;20038;-23
2022/06/18 05:52:11;;;;;;;3.03;2.70;;;22.30;75.90;;;;;;5020380;28;20418;-23
2022/06/18 05:54:37;;;;;;;2.38;2.17;;;22.30;76.00;;;;;;5020992;28;20129;-23
2022/06/18 05:57:03;;;;;;;2.75;2.55;;;22.30;75.90;;;;;;5007683;28;20081;-22
2022/06/18 05:59:29;;;;;;;2.85;2.65;;;22.30;76.00;;;;;;5023024;28;20053;-22
2022/06/18 06:01:56;;;;;;;2.63;2.42;;;22.30;76.00;;;;;;5025377;28;20049;-21
2022/06/18 06:04:23;;;;;;;3.10;2.83;;;22.30;76.00;;;;;;5008290;28;20061;-23
2022/06/18 06:06:49;;;;;;;2.75;2.55;;;22.40;75.90;;;;;;5024365;28;20053;-22
2022/06/18 06:11:28;;;;;;;4.03;3.10;;;22.40;75.90;;;;;;5007604;28;20048;-22
2022/06/18 06:12:00;;;;;;;2.65;2.45;;;22.40;76.00;;;;;;5022700;28;20603;-21
2022/06/18 06:14:25;;;;;;;2.22;2.13;;;22.40;76.20;;;;;;5024120;28;20413;-22
2022/06/18 06:16:51;;;;;;;3.17;2.97;;;22.40;76.20;;;;;;4979421;28;20056;-22
2022/06/18 06:19:17;;;;;;;8.73;2.45;;;22.40;76.60;;;;;;5005357;28;20042;-22
2022/06/18 06:21:42;;;;;;;3.10;2.90;;;22.40;76.70;;;;;;5023377;28;20041;-23
2022/06/18 06:24:08;;;;;;;3.17;2.78;;;22.40;76.80;;;;;;5025735;28;20052;-21
2022/06/18 06:26:34;;;;;;;3.10;2.80;;;22.40;76.70;;;;;;5022859;28;20053;-22
2022/06/18 06:29:00;;;;;;;2.78;2.58;;;22.50;76.40;;;;;;5021266;28;20051;-23
2022/06/18 06:31:26;;;;;;;3.00;2.70;;;22.60;76.20;;;;;;4992795;28;20160;-21
2022/06/18 06:33:52;;;;;;;2.88;2.67;;;22.60;76.20;;;;;;5004505;28;20054;-21
2022/06/18 06:36:17;;;;;;;4.20;2.70;;;22.60;76.30;;;;;;5008330;28;20045;-21
2022/06/18 06:38:43;;;;;;;2.40;2.30;;;22.70;76.30;;;;;;5022773;28;20445;-23
2022/06/18 06:41:35;;;;;;;2.78;2.55;;;22.70;76.40;;;;;;5010737;28;20057;-21
2022/06/18 06:44:01;;;;;;;2.97;2.70;;;22.80;76.40;;;;;;5039197;28;20042;-21
2022/06/18 06:46:27;;;;;;;2.75;2.60;;;22.70;76.30;;;;;;5025817;28;20091;-23
2022/06/18 06:48:53;;;;;;;2.95;2.72;;;22.60;76.80;;;;;;5005889;28;20049;-22
2022/06/18 06:51:26;;;;;;;2.90;2.20;;;22.60;77.00;;;;;;5025337;28;20618;-21
2022/06/18 06:53:51;;;;;;;2.40;2.20;;;22.60;77.10;;;;;;5023382;28;20052;-23
2022/06/18 06:59:03;;;;;;;2.60;2.40;;;22.60;76.80;;;;;;5023859;28;20072;-22
2022/06/18 07:01:28;;;;;;;3.17;2.88;;;22.70;76.80;;;;;;5021260;28;20092;-22
2022/06/18 07:03:54;;;;;;;3.78;2.47;;;22.70;76.50;;;;;;5017561;28;20044;-23
2022/06/18 07:06:20;;;;;;;2.95;2.35;;;22.80;76.20;;;;;;5018202;28;20068;-23
2022/06/18 07:08:45;;;;;;;3.55;2.92;;;22.90;76.20;;;;;;5019029;28;20053;-22
2022/06/18 07:11:15;;;;;;;2.53;2.30;;;22.90;75.60;;;;;;5017230;28;20128;-23
2022/06/18 07:13:40;;;;;;;4.18;2.50;;;22.90;75.60;;;;;;5019795;28;20041;-23
2022/06/18 07:16:06;;;;;;;4.47;2.75;;;23.00;75.60;;;;;;5002385;28;20057;-22
2022/06/18 07:18:35;;;;;;;2.40;2.30;;;23.00;75.60;;;;;;5012857;28;20116;-22
2022/06/18 07:21:01;;;;;;;2.85;2.28;;;23.00;75.60;;;;;;5024074;28;20046;-22
2022/06/18 07:23:27;;;;;;;2.40;2.20;;;23.00;75.50;;;;;;5017661;28;20052;-23
2022/06/18 07:25:52;;;;;;;4.13;2.55;;;23.00;75.80;;;;;;5021548;28;20041;-21
2022/06/18 07:28:18;;;;;;;2.80;2.42;;;23.00;75.60;;;;;;5015668;28;20053;-23
2022/06/18 07:30:46;;;;;;;2.72;2.53;;;23.10;75.40;;;;;;5018813;28;20045;-23
2022/06/18 07:33:13;;;;;;;2.60;2.28;;;23.10;75.10;;;;;;5009258;28;20405;-22
2022/06/18 07:35:39;;;;;;;2.80;2.30;;;23.20;74.80;;;;;;5006277;28;20074;-22
2022/06/18 07:38:04;;;;;;;3.95;2.45;;;23.20;74.60;;;;;;4986331;28;20569;-23
2022/06/18 07:40:33;;;;;;;3.40;2.50;;;23.20;74.40;;;;;;5021884;28;20096;-22
2022/06/18 07:42:59;;;;;;;2.30;2.10;;;23.20;74.50;;;;;;5023043;28;20050;-23
2022/06/18 07:45:25;;;;;;;2.95;2.65;;;23.20;74.60;;;;;;5008748;28;20046;-22
2022/06/18 07:47:51;;;;;;;3.03;2.70;;;23.20;74.90;;;;;;5019821;28;20038;-23
2022/06/18 07:50:17;;;;;;;3.05;2.72;;;23.30;75.00;;;;;;5024275;28;20540;-22
2022/06/18 07:52:44;;;;;;;3.95;2.70;;;23.30;75.10;;;;;;5005465;28;20034;-22
2022/06/18 07:55:15;;;;;;;2.83;2.50;;;23.30;75.10;;;;;;5018479;28;20052;-23
2022/06/18 07:57:42;;;;;;;3.30;2.65;;;23.30;75.50;;;;;;5021775;28;20038;-22
2022/06/18 08:00:10;;;;;;;3.25;2.95;;;23.30;75.50;;;;;;5022895;28;20144;-22
2022/06/18 08:02:37;;;;;;;2.58;2.42;;;23.30;75.40;;;;;;5025066;28;20171;-23
2022/06/18 08:05:02;;;;;;;3.10;2.80;;;23.30;74.60;;;;;;5017222;28;20081;-23
2022/06/18 08:07:28;;;;;;;3.17;2.80;;;23.30;75.30;;;;;;5002036;28;20053;-22
2022/06/18 08:09:54;;;;;;;3.30;3.00;;;23.30;75.20;;;;;;5002632;28;20060;-23
2022/06/18 08:12:19;;;;;;;6.10;2.53;;;23.40;74.90;;;;;;5023390;28;20041;-22
2022/06/18 08:14:45;;;;;;;5.68;2.90;;;23.40;76.30;;;;;;4995492;28;20141;-22
2022/06/18 08:17:10;;;;;;;4.60;2.15;;;23.50;77.00;;;;;;5024088;28;20041;-22
2022/06/18 08:19:36;;;;;;;2.97;1.90;;;23.60;76.80;;;;;;5012509;28;20115;-22
2022/06/18 08:22:02;;;;;;;7.63;1.98;;;23.70;77.90;;;;;;5023827;28;20450;-22
2022/06/18 08:24:27;;;;;;;2.30;2.15;;;23.60;77.30;;;;;;5012722;28;20132;-23
2022/06/18 08:26:53;;;;;;;3.95;1.95;;;23.70;77.00;;;;;;5012613;28;20100;-22
2022/06/18 08:29:20;;;;;;;2.00;1.90;;;23.70;76.60;;;;;;5005026;28;20099;-23
2022/06/18 08:31:46;;;;;;;2.35;2.10;;;23.80;76.70;;;;;;5026166;28;20041;-22
2022/06/18 08:34:12;;;;;;;2.85;1.98;;;23.80;76.50;;;;;;5021640;28;20045;-22
2022/06/18 08:36:38;;;;;;;3.38;1.70;;;23.70;75.80;;;;;;5028683;28;20141;-22
2022/06/18 08:39:03;;;;;;;2.42;2.20;;;23.80;77.80;;;;;;5016377;28;20049;-22
2022/06/18 08:41:51;;;;;;;2.25;2.05;;;23.80;76.70;;;;;;5033573;28;20140;-22
2022/06/18 08:44:48;;;;;;;2.30;2.20;;;23.80;76.70;;;;;;5018461;28;20112;-22
2022/06/18 08:47:40;;;;;;;1.88;1.77;;;23.80;76.40;;;;;;5024367;28;20049;-22
2022/06/18 08:50:25;;;;;;;1.92;1.83;;;23.80;76.20;;;;;;5014477;28;20045;-22
2022/06/18 08:53:11;;;;;;;2.05;1.95;;;23.80;76.10;;;;;;5030248;28;20449;-22
2022/06/18 08:55:50;;;;;;;2.10;2.00;;;23.90;75.90;;;;;;5030487;28;20041;-22
2022/06/18 08:58:39;;;;;;;2.05;1.52;;;23.90;75.70;;;;;;5028541;28;20049;-22
2022/06/18 09:01:26;;;;;;;2.58;1.90;;;23.90;75.30;;;;;;5018559;28;20046;-22
2022/06/18 09:04:08;;;;;;;1.77;1.67;;;23.90;75.30;;;;;;5018459;28;20038;-23
2022/06/18 09:07:25;;;;;;;1.80;1.70;;;23.90;75.10;;;;;;5017932;28;20529;-23
2022/06/18 09:10:00;;;;;;;2.20;2.00;;;23.90;75.00;;;;;;5012178;28;20064;-22
2022/06/18 09:12:56;;;;;;;2.10;1.90;;;23.90;74.60;;;;;;5026276;28;20046;-22
2022/06/18 09:15:28;;;;;;;1.83;1.73;;;23.90;74.40;;;;;;5032796;28;20466;-22
2022/06/18 09:18:19;;;;;;;2.00;1.90;;;24.00;74.10;;;;;;5023093;28;20049;-23
2022/06/18 09:20:52;;;;;;;2.88;1.55;;;24.00;74.00;;;;;;5031172;28;20406;-22
2022/06/18 09:23:28;;;;;;;2.65;1.77;;;24.00;73.60;;;;;;5020958;28;20049;-23
2022/06/18 09:25:55;;;;;;;2.10;1.75;;;24.00;73.80;;;;;;5029125;28;20033;-23
2022/06/18 09:28:27;;;;;;;2.08;1.45;;;24.00;73.40;;;;;;5026711;28;20438;-22
2022/06/18 09:30:55;;;;;;;2.10;1.88;;;24.00;73.30;;;;;;5028861;28;20401;-22
2022/06/18 09:33:28;;;;;;;2.03;1.80;;;24.00;73.20;;;;;;5024465;28;20392;-22
2022/06/18 09:36:16;;;;;;;1.80;1.70;;;24.00;73.00;;;;;;5033166;28;20520;-23
2022/06/18 09:38:52;;;;;;;1.80;1.70;;;24.10;73.00;;;;;;5022919;28;20056;-23
2022/06/18 09:41:52;;;;;;;1.75;1.65;;;24.10;73.00;;;;;;5030022;28;20113;-22
2022/06/18 09:44:40;;;;;;;1.83;1.52;;;24.10;73.00;;;;;;5046997;28;20464;-22
2022/06/18 09:47:12;;;;;;;1.80;1.70;;;24.10;72.90;;;;;;5029826;28;20124;-22
2022/06/18 09:49:38;;;;;;;1.77;1.50;;;24.10;72.80;;;;;;5026260;28;20053;-22
2022/06/18 09:52:22;;;;;;;2.55;1.58;;;24.10;72.90;;;;;;5027310;28;20042;-22
2022/06/18 09:54:55;;;;;;;1.60;1.50;;;24.10;72.70;;;;;;5033307;28;20056;-22
2022/06/18 09:57:23;;;;;;;2.97;1.50;;;24.10;72.50;;;;;;5028477;28;20502;-22
2022/06/18 10:00:09;;;;;;;1.58;1.48;;;24.10;72.50;;;;;;5033914;28;20080;-21
2022/06/18 10:02:37;;;;;;;1.50;1.40;;;24.10;72.40;;;;;;5013811;28;20079;-22
2022/06/18 10:07:49;;;;;;;1.00;1.00;;;24.20;72.20;;;;;;5026543;28;20618;-23
2022/06/18 10:10:21;;;;;;;1.45;1.35;;;24.20;72.10;;;;;;5010490;28;20377;-23
2022/06/18 10:12:50;;;;;;;1.58;1.48;;;24.20;72.20;;;;;;4995341;28;20534;-22
2022/06/18 10:15:17;;;;;;;1.33;1.20;;;24.20;72.00;;;;;;5028661;28;20041;-22
2022/06/18 10:18:20;;;;;;;1.50;1.40;;;24.20;72.10;;;;;;5013058;28;20045;-23
2022/06/18 10:20:58;;;;;;;1.63;1.52;;;24.20;72.10;;;;;;5021308;28;20038;-23
2022/06/18 10:23:50;;;;;;;1.73;1.63;;;24.20;72.60;;;;;;5016194;28;20104;-23
2022/06/18 10:26:37;;;;;;;2.95;1.95;;;24.20;71.70;;;;;;5028975;28;20053;-22
2022/06/18 10:29:21;;;;;;;2.75;2.55;;;24.20;71.50;;;;;;5020941;28;20046;-22
2022/06/18 10:31:49;;;;;;;;;;;24.20;71.50;;;;;;5032927;28;20099;-22
2022/06/18 10:34:39;;;;;;;4.80;2.65;;;24.20;71.50;;;;;;5027870;28;19925;-22
2022/06/18 10:37:11;;;;;;;4.40;3.03;;;24.20;71.30;;;;;;5027713;28;20045;-23
2022/06/18 10:39:51;;;;;;;3.83;2.55;;;24.30;71.30;;;;;;5021025;28;20551;-22
2022/06/18 10:42:32;;;;;;;2.72;2.53;;;24.30;71.20;;;;;;5024166;28;20063;-22
2022/06/18 10:45:05;;;;;;;1.85;1.75;;;24.30;71.30;;;;;;5030396;28;20060;-23
2022/06/18 10:47:35;;;;;;;2.03;1.92;;;24.30;71.20;;;;;;5030293;28;20053;-22
2022/06/18 10:50:03;;;;;;;2.53;2.35;;;24.30;71.20;;;;;;5010931;28;20053;-22
2022/06/18 10:52:29;;;;;;;4.03;2.75;;;24.30;71.40;;;;;;5017499;28;20395;-22
2022/06/18 10:55:16;;;;;;;3.15;2.47;;;24.30;71.30;;;;;;5005535;28;20413;-21
2022/06/18 10:57:41;;;;;;;3.05;2.78;;;24.30;71.30;;;;;;5019800;28;20402;-22
2022/06/18 11:00:10;;;;;;;2.70;2.50;;;24.40;71.30;;;;;;5022976;28;20053;-22
2022/06/18 11:02:36;;;;;;;2.92;2.72;;;24.30;71.30;;;;;;5024322;28;20168;-22
2022/06/18 11:05:05;;;;;;;2.80;2.60;;;24.40;71.20;;;;;;5012900;28;20105;-23
2022/06/18 11:07:33;;;;;;;2.92;2.72;;;24.40;71.20;;;;;;5023346;28;20093;-22
2022/06/18 11:10:00;;;;;;;4.22;2.60;;;24.40;71.10;;;;;;5019511;28;20114;-23
2022/06/18 11:12:29;;;;;;;3.42;2.60;;;24.40;70.90;;;;;;5025424;28;20049;-22
2022/06/18 11:14:55;;;;;;;4.05;2.90;;;24.40;71.00;;;;;;5019662;28;20584;-22
2022/06/18 11:17:31;;;;;;;3.35;2.95;;;24.40;70.90;;;;;;5019260;28;20423;-22
2022/06/18 11:20:27;;;;;;;3.45;2.78;;;24.50;70.90;;;;;;5022602;28;20041;-22
2022/06/18 11:22:54;;;;;;;3.10;2.80;;;24.40;70.90;;;;;;5011164;28;20069;-22
2022/06/18 11:25:30;;;;;;;2.90;2.70;;;24.50;71.20;;;;;;5020745;28;20050;-22
2022/06/18 11:28:00;;;;;;;2.95;2.75;;;24.40;70.70;;;;;;5015489;28;20077;-22
2022/06/18 11:30:40;;;;;;;3.20;2.90;;;24.50;70.80;;;;;;5017409;28;20098;-22
2022/06/18 11:33:06;;;;;;;3.13;2.85;;;24.50;70.90;;;;;;5001605;28;20080;-22
2022/06/18 11:35:33;;;;;;;3.25;2.95;;;24.50;70.70;;;;;;4992043;28;20050;-22
2022/06/18 11:38:15;;;;;;;4.07;3.10;;;24.60;70.60;;;;;;5018352;28;20050;-22
2022/06/18 11:40:41;;;;;;;3.90;3.33;;;24.60;70.80;;;;;;4657014;28;10000236;-22
2022/06/18 11:43:31;;;;;;;4.95;3.20;;;24.60;70.80;;;;;;5005877;28;20121;-22
2022/06/18 11:46:00;;;;;;;5.80;2.70;;;24.60;70.70;;;;;;5023763;28;20056;-22
2022/06/18 11:48:58;;;;;;;3.13;2.63;;;24.60;70.40;;;;;;5018118;28;20056;-22
2022/06/18 11:51:36;;;;;;;2.80;2.60;;;24.60;70.60;;;;;;5018317;28;20048;-22
2022/06/18 11:54:27;;;;;;;2.03;1.83;;;24.60;70.30;;;;;;5014611;28;20045;-21
2022/06/18 11:57:16;;;;;;;3.67;2.65;;;24.60;70.50;;;;;;5016954;28;20143;-22
2022/06/18 11:59:58;;;;;;;2.92;2.55;;;24.60;70.80;;;;;;5018740;28;20138;-22
2022/06/18 12:02:28;;;;;;;3.15;2.88;;;24.60;70.70;;;;;;5025142;28;20045;-22
2022/06/18 12:04:59;;;;;;;3.53;3.10;;;24.60;70.80;;;;;;5029173;28;20061;-22
2022/06/18 12:07:43;;;;;;;3.03;2.83;;;24.70;71.10;;;;;;5001859;28;20041;-22
2022/06/18 12:10:13;;;;;;;4.35;2.35;;;24.70;70.80;;;;;;4997859;28;20575;-22
2022/06/18 12:13:06;;;;;;;4.75;2.92;;;24.70;70.60;;;;;;5024380;28;20141;-22
2022/06/18 12:15:41;;;;;;;3.38;3.00;;;24.70;70.60;;;;;;4996232;28;20046;-22
2022/06/18 12:18:33;;;;;;;3.50;3.13;;;24.70;70.70;;;;;;5023574;28;20046;-22
2022/06/18 12:20:59;;;;;;;2.60;2.40;;;24.70;71.00;;;;;;5032108;28;20051;-22
2022/06/18 12:23:33;;;;;;;2.70;2.50;;;24.70;70.70;;;;;;5030819;28;20483;-21
2022/06/18 12:26:13;;;;;;;3.50;3.08;;;24.80;70.50;;;;;;5030378;28;20088;-22
2022/06/18 12:28:44;;;;;;;2.55;2.35;;;24.90;71.00;;;;;;5008021;28;20103;-22
2022/06/18 12:31:26;;;;;;;2.53;2.33;;;24.80;70.90;;;;;;5022705;28;20037;-22
2022/06/18 12:33:54;;;;;;;4.32;2.50;;;24.80;71.10;;;;;;5030238;28;20049;-22
2022/06/18 12:36:40;;;;;;;3.10;2.15;;;24.80;71.30;;;;;;5026509;28;20037;-21
2022/06/18 12:39:29;;;;;;;3.67;2.45;;;24.80;71.40;;;;;;5008828;28;20054;-21
2022/06/18 12:42:07;;;;;;;2.50;2.30;;;24.80;71.40;;;;;;5028507;28;20046;-21
2022/06/18 12:44:33;;;;;;;3.22;2.40;;;24.80;71.50;;;;;;5007855;28;20522;-22
2022/06/18 12:47:25;;;;;;;2.58;2.15;;;24.80;71.60;;;;;;5034560;28;20521;-22
2022/06/18 12:49:56;;;;;;;3.97;2.30;;;24.80;71.60;;;;;;5020740;28;20049;-22
2022/06/18 12:52:44;;;;;;;2.22;2.03;;;24.90;71.60;;;;;;5028410;28;20088;-22
2022/06/18 12:55:29;;;;;;;2.00;1.90;;;24.80;71.40;;;;;;5033698;28;20517;-22
2022/06/18 12:58:28;;;;;;;2.22;1.98;;;24.90;71.40;;;;;;5035098;28;20052;-23
2022/06/18 13:01:00;;;;;;;2.63;2.10;;;24.90;71.40;;;;;;5020504;28;20068;-22
2022/06/18 13:03:42;;;;;;;2.41;1.98;;;24.90;71.50;;;;;;4678541;28;10000942;-22
2022/06/18 13:06:29;;;;;;;2.50;2.13;;;24.90;71.30;;;;;;5020128;28;20041;-23
2022/06/18 13:09:12;;;;;;;2.47;1.98;;;24.90;71.20;;;;;;5025240;28;20072;-21
2022/06/18 13:12:12;;;;;;;2.47;2.10;;;24.90;71.30;;;;;;5021192;28;20192;-22
2022/06/18 13:14:44;;;;;;;1.80;1.70;;;25.00;71.10;;;;;;5030405;28;20037;-21
2022/06/18 13:17:23;;;;;;;2.13;1.80;;;25.00;71.20;;;;;;5025721;28;20057;-21
2022/06/18 13:19:52;;;;;;;3.53;2.22;;;25.00;71.10;;;;;;5012989;28;20136;-22
2022/06/18 13:22:18;;;;;;;2.45;2.25;;;25.00;71.10;;;;;;5015163;28;20049;-22